| time (UTC) | temp F | wind direction | speed knots | gust knots | rain 1hr in | rain 24hr in | rain mn in | humidity % | barometer mb |
| 20260507080403 | 46 | 334 | 1.7 | 2.6 | 0.00 | 0.00 | 0.00 | 57 | 1008.1 |
| 20260507074949 | 46 | 240 | 4.3 | 4.3 | 0.00 | 0.00 | 0.00 | 56 | 1008.0 |
| 20260507073433 | 46 | 309 | 3.5 | 3.5 | 0.00 | 0.00 | 0.00 | 56 | 1007.9 |
| 20260507070403 | 45 | 287 | 0.0 | 0.0 | 0.00 | 0.00 | 0.00 | 55 | 1007.9 |
| 20260507064950 | 44 | 235 | 0.0 | 0.9 | 0.00 | 0.00 | 0.00 | 57 | 1007.7 |
| 20260507063435 | 44 | 263 | 1.7 | 3.5 | 0.00 | 0.00 | 0.00 | 57 | 1007.8 |
| 20260507060405 | 43 | 213 | 0.9 | 2.6 | 0.00 | 0.00 | 0.00 | 57 | 1007.5 |
| 20260507054952 | 43 | 263 | 0.9 | 1.7 | 0.00 | 0.00 | 0.00 | 57 | 1007.3 |
| 20260507053436 | 42 | 206 | 0.9 | 1.7 | 0.00 | 0.00 | 0.00 | 56 | 1007.5 |
| 20260507050406 | 40 | 245 | 1.7 | 2.6 | 0.00 | 0.00 | 0.00 | 56 | 1007.4 |
| 20260507044951 | 39 | 159 | 1.7 | 1.7 | 0.00 | 0.00 | 0.00 | 59 | 1007.3 |
| 20260507043437 | 38 | 148 | 1.7 | 2.6 | 0.00 | 0.00 | 0.00 | 63 | 1007.3 |
| 20260507041921 | 36 | 154 | 1.7 | 2.6 | 0.00 | 0.00 | 0.00 | 67 | 1007.2 |
| 20260507040406 | 34 | 142 | 0.0 | 0.9 | 0.00 | 0.00 | 0.00 | 74 | 1007.1 |
| 20260507034952 | 32 | 142 | 0.9 | 0.9 | 0.00 | 0.00 | 0.00 | 76 | 1007.3 |
| 20260507033439 | 31 | 142 | 1.7 | 2.6 | 0.00 | 0.00 | 0.00 | 77 | 1007.2 |
| 20260507031921 | 30 | 154 | 2.6 | 2.6 | 0.00 | 0.00 | 0.00 | 79 | 1006.9 |
| 20260507030406 | 29 | 154 | 1.7 | 1.7 | 0.00 | 0.00 | 0.00 | 80 | 1006.9 |
| 20260507023436 | 29 | 154 | 0.9 | 1.7 | 0.00 | 0.00 | 0.00 | 82 | 1006.9 |
| 20260507021921 | 28 | 154 | 0.9 | 1.7 | 0.00 | 0.00 | 0.00 | 84 | 1007.0 |
| 20260507020406 | 28 | 154 | 0.9 | 1.7 | 0.00 | 0.00 | 0.00 | 85 | 1006.8 |
| 20260507013436 | 29 | 154 | 0.0 | 0.9 | 0.00 | 0.00 | 0.00 | 81 | 1006.8 |
| 20260507010406 | 29 | 154 | 0.0 | 0.9 | 0.00 | 0.00 | 0.00 | 81 | 1006.7 |
| 20260507004951 | 30 | 154 | 0.0 | 0.0 | 0.00 | 0.00 | 0.00 | 80 | 1006.7 |
| 20260507003437 | 30 | 154 | 0.0 | 0.0 | 0.00 | 0.00 | 0.00 | 81 | 1006.7 |
| 20260507001921 | 30 | 154 | 0.0 | 0.9 | 0.00 | 0.00 | 0.00 | 81 | 1006.5 |
| 20260507000406 | 31 | 154 | 0.9 | 1.7 | 0.00 | 0.00 | 0.00 | 79 | 1006.3 |
| 20260506234951 | 31 | 154 | 0.9 | 0.9 | 0.00 | 0.00 | 0.00 | 79 | 1006.5 |
| 20260506233436 | 30 | 154 | 0.0 | 0.0 | 0.00 | 0.00 | 0.00 | 80 | 1006.1 |
| 20260506231921 | 30 | 154 | 0.9 | 1.7 | 0.00 | 0.00 | 0.00 | 82 | 1006.2 |
| 20260506230406 | 31 | 154 | 0.0 | 0.0 | 0.00 | 0.00 | 0.00 | 81 | 1006.1 |
| 20260506224951 | 31 | 154 | 0.9 | 1.7 | 0.00 | 0.00 | 0.00 | 80 | 1005.9 |
| 20260506223436 | 31 | 173 | 1.7 | 1.7 | 0.00 | 0.00 | 0.00 | 79 | 1005.9 |
| 20260506221921 | 31 | 173 | 0.0 | 0.9 | 0.00 | 0.00 | 0.00 | 80 | 1005.9 |
| 20260506220405 | 31 | 208 | 0.0 | 0.9 | 0.00 | 0.00 | 0.00 | 79 | 1005.8 |
| 20260506214951 | 32 | 208 | 0.0 | 0.9 | 0.00 | 0.00 | 0.00 | 78 | 1005.7 |
| 20260506213436 | 32 | 208 | 0.9 | 1.7 | 0.00 | 0.00 | 0.00 | 76 | 1005.7 |
| 20260506211921 | 32 | 208 | 0.0 | 0.0 | 0.00 | 0.00 | 0.00 | 77 | 1005.4 |
| 20260506210405 | 32 | 208 | 0.0 | 0.9 | 0.00 | 0.00 | 0.00 | 76 | 1005.5 |
| 20260506204951 | 33 | 208 | 0.0 | 0.9 | 0.00 | 0.00 | 0.00 | 74 | 1005.4 |
| 20260506203437 | 33 | 208 | 0.0 | 0.9 | 0.00 | 0.00 | 0.00 | 74 | 1005.6 |
| 20260506201922 | 34 | 208 | 0.0 | 0.0 | 0.00 | 0.00 | 0.00 | 72 | 1005.5 |
| 20260506200406 | 35 | 208 | 0.0 | 0.9 | 0.00 | 0.00 | 0.00 | 70 | 1005.3 |
| 20260506194952 | 36 | 269 | 0.9 | 0.9 | 0.00 | 0.00 | 0.00 | 68 | 1005.4 |
| 20260506193437 | 37 | 269 | 0.0 | 0.0 | 0.00 | 0.00 | 0.00 | 64 | 1005.2 |
| 20260506191922 | 39 | 269 | 0.0 | 0.0 | 0.00 | 0.00 | 0.00 | 60 | 1005.1 |
| 20260506190407 | 41 | 268 | 0.0 | 0.9 | 0.00 | 0.00 | 0.00 | 56 | 1004.9 |
| 20260506184954 | 42 | 269 | 0.9 | 0.9 | 0.00 | 0.00 | 0.00 | 55 | 1004.8 |
| 20260506183438 | 43 | 250 | 0.9 | 2.6 | 0.00 | 0.00 | 0.00 | 54 | 1004.8 |
| 20260506181923 | 44 | 274 | 2.6 | 3.5 | 0.00 | 0.00 | 0.00 | 53 | 1004.7 |
| 20260506180408 | 45 | 234 | 0.9 | 1.7 | 0.00 | 0.00 | 0.00 | 51 | 1004.5 |
| 20260506174955 | 46 | 290 | 4.3 | 4.3 | 0.00 | 0.00 | 0.00 | 51 | 1004.2 |
| 20260506173439 | 46 | 267 | 1.7 | 2.6 | 0.00 | 0.00 | 0.00 | 52 | 1004.1 |
| 20260506171925 | 45 | 228 | 3.5 | 4.3 | 0.00 | 0.00 | 0.00 | 53 | 1004.0 |
| 20260506170410 | 45 | 265 | 3.5 | 4.3 | 0.00 | 0.00 | 0.00 | 52 | 1003.9 |
| 20260506163441 | 46 | 264 | 5.2 | 7.0 | 0.00 | 0.00 | 0.00 | 50 | 1003.5 |
| 20260506161926 | 45 | 308 | 2.6 | 3.5 | 0.00 | 0.00 | 0.00 | 50 | 1003.6 |
| 20260506160410 | 47 | 331 | 1.7 | 1.7 | 0.00 | 0.00 | 0.00 | 47 | 1003.5 |
| 20260506154957 | 48 | 271 | 3.5 | 7.0 | 0.00 | 0.00 | 0.00 | 45 | 1003.5 |
| 20260506153442 | 48 | 345 | 2.6 | 3.5 | 0.00 | 0.00 | 0.00 | 47 | 1003.2 |
| 20260506151927 | 46 | 294 | 2.6 | 3.5 | 0.00 | 0.00 | 0.00 | 48 | 1003.3 |
| 20260506150411 | 46 | 320 | 3.5 | 5.2 | 0.00 | 0.00 | 0.00 | 45 | 1003.2 |
| 20260506144958 | 45 | 231 | 1.7 | 2.6 | 0.00 | 0.00 | 0.00 | 48 | 1003.4 |
| 20260506141928 | 48 | 293 | 3.5 | 4.3 | 0.00 | 0.00 | 0.00 | 45 | 1003.0 |
| 20260506140413 | 46 | 323 | 4.3 | 5.2 | 0.00 | 0.00 | 0.00 | 47 | 1002.9 |
| 20260506134959 | 45 | 300 | 1.7 | 2.6 | 0.00 | 0.00 | 0.00 | 49 | 1003.1 |
| 20260506133443 | 45 | 331 | 4.3 | 7.0 | 0.00 | 0.00 | 0.00 | 48 | 1002.8 |
| 20260506131928 | 47 | 335 | 5.2 | 7.0 | 0.00 | 0.00 | 0.00 | 46 | 1002.9 |
| 20260506130413 | 46 | 296 | 3.5 | 3.5 | 0.00 | 0.00 | 0.00 | 49 | 1002.7 |
| 20260506124959 | 45 | 229 | 5.2 | 7.0 | 0.00 | 0.00 | 0.00 | 51 | 1002.7 |
| 20260506123444 | 46 | 253 | 6.1 | 7.8 | 0.00 | 0.00 | 0.00 | 50 | 1002.5 |
| 20260506121929 | 45 | 309 | 3.5 | 4.3 | 0.00 | 0.00 | 0.00 | 53 | 1002.5 |
| 20260506120414 | 44 | 281 | 7.8 | 9.6 | 0.00 | 0.00 | 0.00 | 54 | 1002.4 |
| 20260506113446 | 45 | 300 | 9.6 | 11.3 | 0.00 | 0.00 | 0.00 | 51 | 1002.2 |
| 20260506111931 | 45 | 251 | 8.7 | 10.4 | 0.00 | 0.00 | 0.00 | 52 | 1001.8 |
| 20260506110416 | 45 | 277 | 10.4 | 12.2 | 0.00 | 0.00 | 0.00 | 51 | 1002.0 |
| 20260506104901 | 45 | 229 | 4.3 | 7.8 | 0.00 | 0.00 | 0.00 | 50 | 1001.4 |
| 20260506103447 | 45 | 276 | 7.0 | 10.4 | 0.00 | 0.00 | 0.00 | 49 | 1001.3 |
| 20260506101931 | 46 | 276 | 8.7 | 11.3 | 0.00 | 0.00 | 0.00 | 47 | 1001.3 |
| 20260506100416 | 46 | 220 | 10.4 | 12.2 | 0.00 | 0.00 | 0.00 | 47 | 1001.0 |
| 20260506094902 | 45 | 261 | 8.7 | 10.4 | 0.00 | 0.00 | 0.00 | 49 | 1000.8 |
| 20260506093448 | 46 | 258 | 7.8 | 10.4 | 0.00 | 0.00 | 0.00 | 48 | 1000.7 |
| 20260506091933 | 45 | 261 | 8.7 | 11.3 | 0.00 | 0.00 | 0.00 | 50 | 1000.5 |
| 20260506090418 | 45 | 271 | 7.0 | 9.6 | 0.00 | 0.00 | 0.00 | 51 | 1000.4 |